aviador You're here:

UBBN Decoded Metar

NAKHCHIVAN in AZERBAIJAN
Report Time2017-12-15 17:30:00
UTC Time2017-12-15 17:57:13
Flight Rules ifr IFR
WindVRB at 02 kt
Visibility1900 m
Phenomena:Mist
Clouds:N/A
Expected CloudBase > 800 ft AGL from Temp-Dew spread
CeilingNone
Temp-3°C (ISA -7)
Dew Point-5°C (86% RH)
AAT-6.3°C
QNH1022 hPa
Density Alt4,600 ft
Elevation5,653 ft
Report Wrong Elevation
Raw Report
UBBN 151730Z VRB02KT 1900 BR NSC M03/M05 Q1022 R14R/CLRD// NOSIG
RMK MT OBSC QFE691=

Extra information for UBBN:More info

Metar Taf Metar & Taf Last 4 Metars F.Rules Stats Wind Profile Meteogram Temp Stats Airport Information Weather charts Add Link Nearby VenuesMetar ALERT Operation Metar Decoded Social comments